createdAt,value
2023-10-30T00:00:52.212Z,1.57
2023-10-30T00:03:20.801Z,1.70
2023-10-30T00:05:49.988Z,1.67
2023-10-30T00:08:20.191Z,1.50
2023-10-30T00:10:49.934Z,1.63
2023-10-30T00:13:18.369Z,1.40
2023-10-30T00:15:46.706Z,1.80
2023-10-30T00:18:15.191Z,1.40
2023-10-30T00:20:43.629Z,1.40
2023-10-30T00:23:12.017Z,1.50
2023-10-30T00:25:40.408Z,1.50
2023-10-30T00:28:10.382Z,1.00
2023-10-30T00:30:38.796Z,1.63
2023-10-30T00:33:07.230Z,1.97
2023-10-30T00:35:35.634Z,1.27
2023-10-30T00:38:03.935Z,0.93
2023-10-30T00:40:32.441Z,1.57
2023-10-30T00:43:00.740Z,1.50
2023-10-30T00:45:30.628Z,1.50
2023-10-30T00:47:59.258Z,1.50
2023-10-30T00:50:27.954Z,1.40
2023-10-30T00:52:56.279Z,1.73
2023-10-30T00:55:25.377Z,1.20
2023-10-30T00:57:53.680Z,1.33
2023-10-30T01:00:22.115Z,1.60
2023-10-30T01:02:52.038Z,1.27
2023-10-30T01:05:20.595Z,1.93
2023-10-30T01:07:49.281Z,1.63
2023-10-30T01:10:17.650Z,1.13
2023-10-30T01:12:46.028Z,1.40
2023-10-30T01:15:14.410Z,1.57
2023-10-30T01:17:42.860Z,1.87
2023-10-30T01:20:13.405Z,2.20
2023-10-30T01:22:41.728Z,1.83
2023-10-30T01:25:10.585Z,2.07
2023-10-30T01:27:38.951Z,1.80
2023-10-30T01:30:08.228Z,1.97
2023-10-30T01:32:36.620Z,2.30
2023-10-30T01:35:05.183Z,1.83
2023-10-30T01:37:34.952Z,1.40
2023-10-30T01:40:03.483Z,2.03
2023-10-30T01:42:31.856Z,1.53
2023-10-30T01:45:00.485Z,1.70
2023-10-30T01:47:28.852Z,2.30
2023-10-30T01:49:57.309Z,2.00
2023-10-30T01:52:25.829Z,1.83
2023-10-30T01:54:55.558Z,2.50
2023-10-30T01:57:24.255Z,2.27
2023-10-30T01:59:52.815Z,1.73
2023-10-30T02:02:21.311Z,2.60
2023-10-30T02:04:49.763Z,2.83
2023-10-30T02:07:21.037Z,1.67
2023-10-30T02:09:50.087Z,1.53
2023-10-30T02:12:20.043Z,1.77
2023-10-30T02:14:48.468Z,1.33
2023-10-30T02:17:16.810Z,1.93
2023-10-30T02:19:45.166Z,2.03
2023-10-30T02:22:13.563Z,2.10
2023-10-30T02:24:41.997Z,2.17
2023-10-30T02:27:11.743Z,1.73
2023-10-30T02:29:41.952Z,1.50
2023-10-30T02:32:10.405Z,2.07
2023-10-30T02:34:39.095Z,2.07
2023-10-30T02:37:07.431Z,1.90
2023-10-30T02:39:36.010Z,1.40
2023-10-30T02:42:05.708Z,2.10
2023-10-30T02:44:35.471Z,1.93
2023-10-30T02:47:03.945Z,2.17
2023-10-30T02:49:32.296Z,1.60
2023-10-30T02:52:00.634Z,2.40
2023-10-30T02:54:29.191Z,1.63
2023-10-30T02:56:57.667Z,1.93
2023-10-30T02:59:25.968Z,1.77
2023-10-30T03:01:55.666Z,2.13
2023-10-30T03:04:25.209Z,1.67
2023-10-30T03:06:53.634Z,2.13
2023-10-30T03:09:22.109Z,1.53
2023-10-30T03:11:50.605Z,2.53
2023-10-30T03:14:18.918Z,1.97
2023-10-30T03:16:47.299Z,1.13
2023-10-30T03:19:16.989Z,1.87
2023-10-30T03:21:45.379Z,2.20
2023-10-30T03:24:13.764Z,1.20
2023-10-30T03:26:42.093Z,1.90
2023-10-30T03:29:10.428Z,1.93
2023-10-30T03:31:38.802Z,1.80
2023-10-30T03:34:07.220Z,2.23
2023-10-30T03:36:37.290Z,1.67
2023-10-30T03:39:05.628Z,2.27
2023-10-30T03:41:33.980Z,2.23
2023-10-30T03:44:02.279Z,1.67
2023-10-30T03:46:31.442Z,1.70
2023-10-30T03:48:59.789Z,2.33
2023-10-30T03:51:28.232Z,2.50
2023-10-30T03:53:57.954Z,2.00
2023-10-30T03:56:26.718Z,2.30
2023-10-30T03:58:55.013Z,3.13
2023-10-30T04:01:24.621Z,2.30
2023-10-30T04:03:53.585Z,2.33
2023-10-30T04:06:22.176Z,2.60
2023-10-30T04:08:50.568Z,2.70
2023-10-30T04:11:20.281Z,2.87
2023-10-30T04:13:48.664Z,3.07
2023-10-30T04:16:18.324Z,3.27
2023-10-30T04:18:46.940Z,3.57
2023-10-30T04:21:15.409Z,3.00
2023-10-30T04:23:45.301Z,3.53
2023-10-30T04:26:13.818Z,2.00
2023-10-30T04:28:43.625Z,2.90
2023-10-30T04:31:11.955Z,3.57
2023-10-30T04:33:40.365Z,3.27
2023-10-30T04:36:09.049Z,3.37
2023-10-30T04:38:38.382Z,3.07
2023-10-30T04:41:06.939Z,3.00
2023-10-30T04:43:35.395Z,2.23
2023-10-30T04:46:05.280Z,3.10
2023-10-30T04:48:33.772Z,3.83
2023-10-30T04:51:02.155Z,4.07
2023-10-30T04:53:30.830Z,3.00
2023-10-30T04:55:59.312Z,3.13
2023-10-30T04:58:27.905Z,2.33
2023-10-30T05:00:56.243Z,3.33
2023-10-30T05:03:25.932Z,2.93
2023-10-30T05:05:54.259Z,2.63
2023-10-30T05:08:22.616Z,2.57
2023-10-30T05:10:51.024Z,2.60
2023-10-30T05:13:19.403Z,3.07
2023-10-30T05:15:47.900Z,3.17
2023-10-30T05:18:18.746Z,3.00
2023-10-30T05:20:48.471Z,2.93
2023-10-30T05:23:16.863Z,3.27
2023-10-30T05:25:45.153Z,2.67
2023-10-30T05:28:13.598Z,2.83
2023-10-30T05:30:42.123Z,3.33
2023-10-30T05:33:10.583Z,2.43
2023-10-30T05:35:39.128Z,2.93
2023-10-30T05:38:10.087Z,3.27
2023-10-30T05:40:39.122Z,3.00
2023-10-30T05:43:07.488Z,2.37
2023-10-30T05:45:35.876Z,2.60
2023-10-30T05:48:04.279Z,3.57
2023-10-30T05:50:32.626Z,2.67
2023-10-30T05:53:00.910Z,2.60
2023-10-30T05:55:30.818Z,2.17
2023-10-30T05:57:59.176Z,2.60
2023-10-30T06:00:27.824Z,2.73
2023-10-30T06:02:56.257Z,2.93
2023-10-30T06:05:24.628Z,2.97
2023-10-30T06:07:53.069Z,2.17
2023-10-30T06:10:24.544Z,2.30
2023-10-30T06:12:54.298Z,2.37
2023-10-30T06:15:22.820Z,2.50
2023-10-30T06:17:51.220Z,3.00
2023-10-30T06:20:19.575Z,2.30
2023-10-30T06:22:47.887Z,2.53
2023-10-30T06:25:16.334Z,2.30
2023-10-30T06:27:44.714Z,2.20
2023-10-30T06:30:15.773Z,3.17
2023-10-30T06:32:44.203Z,2.60
2023-10-30T06:35:12.592Z,2.80
2023-10-30T06:37:41.105Z,2.70
2023-10-30T06:40:09.875Z,2.20
2023-10-30T06:42:38.232Z,2.43
2023-10-30T06:45:07.244Z,2.53
2023-10-30T06:47:36.937Z,2.43
2023-10-30T06:50:05.342Z,2.83
2023-10-30T06:52:33.755Z,2.30
2023-10-30T06:55:02.446Z,2.47
2023-10-30T06:57:30.849Z,2.00
2023-10-30T06:59:59.682Z,2.17
2023-10-30T07:02:28.091Z,2.87
2023-10-30T07:04:57.808Z,2.57
2023-10-30T07:07:26.114Z,2.70
2023-10-30T07:09:54.587Z,3.07
2023-10-30T07:12:23.048Z,2.07
2023-10-30T07:14:51.443Z,2.33
2023-10-30T07:17:19.816Z,2.73
2023-10-30T07:19:49.621Z,2.37
2023-10-30T07:22:19.388Z,2.80
2023-10-30T07:24:48.113Z,3.40
2023-10-30T07:27:19.032Z,3.87
2023-10-30T07:29:47.669Z,2.53
2023-10-30T07:32:16.048Z,3.80
2023-10-30T07:34:44.452Z,3.20
2023-10-30T07:37:12.851Z,2.67
2023-10-30T07:39:42.749Z,3.33
2023-10-30T07:42:11.158Z,3.53
2023-10-30T07:44:39.574Z,3.57
2023-10-30T07:47:08.200Z,2.77
2023-10-30T07:49:36.604Z,3.20
2023-10-30T07:52:04.971Z,3.90
2023-10-30T07:54:33.295Z,3.40
2023-10-30T07:57:03.279Z,3.37
2023-10-30T07:59:33.539Z,3.70
2023-10-30T08:02:02.155Z,4.30
2023-10-30T08:04:30.655Z,4.87
2023-10-30T08:06:59.172Z,3.80
2023-10-30T08:09:27.539Z,3.97
2023-10-30T08:11:56.924Z,3.70
2023-10-30T08:14:26.700Z,3.60
2023-10-30T08:16:55.143Z,4.20
2023-10-30T08:19:23.494Z,3.50
2023-10-30T08:21:51.867Z,3.20
2023-10-30T08:24:20.264Z,3.73
2023-10-30T08:26:48.799Z,4.10
2023-10-30T08:29:17.128Z,4.00
2023-10-30T08:31:47.425Z,3.53
2023-10-30T08:34:15.900Z,4.10
2023-10-30T08:36:44.323Z,3.47
2023-10-30T08:39:14.141Z,2.77
2023-10-30T08:41:42.538Z,3.27
2023-10-30T08:44:10.861Z,3.30
2023-10-30T08:46:39.317Z,3.50
2023-10-30T08:49:09.088Z,3.93
2023-10-30T08:51:50.308Z,3.33
2023-10-30T08:54:25.862Z,2.70
2023-10-30T08:56:58.284Z,3.30
2023-10-30T08:59:32.881Z,3.07
2023-10-30T09:02:01.978Z,2.87
2023-10-30T09:04:31.951Z,3.70
2023-10-30T09:07:00.483Z,4.00
2023-10-30T09:09:28.852Z,3.60
2023-10-30T09:11:57.350Z,2.83
2023-10-30T09:14:26.701Z,2.53
2023-10-30T09:16:55.336Z,3.30
2023-10-30T09:19:24.036Z,2.67
2023-10-30T09:21:56.360Z,3.10
2023-10-30T09:24:25.367Z,2.73
2023-10-30T09:26:53.827Z,2.63
2023-10-30T09:29:22.154Z,2.80
2023-10-30T09:31:50.983Z,3.07
2023-10-30T09:34:19.390Z,2.53
2023-10-30T09:36:47.861Z,3.53
2023-10-30T09:39:17.583Z,2.30
2023-10-30T09:41:46.268Z,2.87
2023-10-30T09:44:14.652Z,2.33
2023-10-30T09:46:43.676Z,2.70
2023-10-30T09:49:14.706Z,2.50
2023-10-30T09:51:43.588Z,2.30
2023-10-30T09:54:13.176Z,2.40
2023-10-30T09:56:43.001Z,1.93
2023-10-30T09:59:11.358Z,3.00
2023-10-30T10:01:39.860Z,2.03
2023-10-30T10:04:08.446Z,2.63
2023-10-30T10:06:36.963Z,2.07
2023-10-30T10:09:05.862Z,1.77
2023-10-30T10:11:34.781Z,2.67
2023-10-30T10:14:06.730Z,2.30
2023-10-30T10:16:37.758Z,2.40
2023-10-30T10:19:17.926Z,2.53
2023-10-30T10:21:49.928Z,2.10
2023-10-30T10:24:29.529Z,2.30
2023-10-30T10:27:03.469Z,2.40
2023-10-30T10:29:33.360Z,1.80
2023-10-30T10:32:01.820Z,2.80
2023-10-30T10:34:33.145Z,2.57
2023-10-30T10:37:03.284Z,2.40
2023-10-30T10:39:37.633Z,2.17
2023-10-30T10:42:06.143Z,2.17
2023-10-30T10:44:36.033Z,2.80
2023-10-30T10:47:04.889Z,2.00
2023-10-30T10:49:36.350Z,2.10
2023-10-30T10:52:05.664Z,2.13
2023-10-30T10:54:35.960Z,2.33
2023-10-30T10:57:04.323Z,2.17
2023-10-30T10:59:32.844Z,1.90
2023-10-30T11:02:04.134Z,2.57
2023-10-30T11:04:32.619Z,2.30
2023-10-30T11:07:02.672Z,1.90
2023-10-30T11:09:32.493Z,2.50
2023-10-30T11:12:02.841Z,1.73
2023-10-30T11:14:32.109Z,2.37
2023-10-30T11:17:03.538Z,1.90
2023-10-30T11:19:33.555Z,2.60
2023-10-30T11:22:01.998Z,2.10
2023-10-30T11:24:36.725Z,2.30
2023-10-30T11:27:05.155Z,2.20
2023-10-30T11:29:48.498Z,2.30
2023-10-30T11:32:18.369Z,2.17
2023-10-30T11:34:48.168Z,2.27
2023-10-30T11:37:16.984Z,2.00
2023-10-30T11:39:46.442Z,2.40
2023-10-30T11:42:40.993Z,2.97
2023-10-30T11:45:25.645Z,2.57
2023-10-30T11:48:06.615Z,2.67
2023-10-30T11:50:35.701Z,3.10
2023-10-30T11:53:08.702Z,2.73
2023-10-30T11:55:38.279Z,3.20
2023-10-30T11:58:07.420Z,3.03
2023-10-30T12:00:36.586Z,3.93
2023-10-30T12:03:06.412Z,4.73
2023-10-30T12:05:34.816Z,4.70
2023-10-30T12:08:05.050Z,4.87
2023-10-30T12:10:35.999Z,5.57
2023-10-30T12:13:05.138Z,5.43
2023-10-30T12:15:34.380Z,5.43
2023-10-30T12:18:02.958Z,5.47
2023-10-30T12:20:32.880Z,6.27
2023-10-30T12:23:01.420Z,6.83
2023-10-30T12:25:29.854Z,6.70
2023-10-30T12:28:04.999Z,6.77
2023-10-30T12:30:37.060Z,6.63
2023-10-30T12:33:05.881Z,7.10
2023-10-30T12:35:36.740Z,8.13
2023-10-30T12:38:14.870Z,7.87
2023-10-30T12:40:45.941Z,8.10
2023-10-30T12:43:14.656Z,7.70
2023-10-30T12:45:43.295Z,7.67
2023-10-30T12:48:11.806Z,8.83
2023-10-30T12:50:42.049Z,8.50
2023-10-30T12:53:12.636Z,8.43
2023-10-30T12:55:41.402Z,8.70
2023-10-30T12:58:09.894Z,9.83
2023-10-30T13:00:38.540Z,9.13
2023-10-30T13:03:07.318Z,9.13
2023-10-30T13:05:35.747Z,8.47
2023-10-30T13:08:05.569Z,9.60
2023-10-30T13:10:34.299Z,11.87
2023-10-30T13:13:02.827Z,38.23
2023-10-30T13:15:31.321Z,112.20
2023-10-30T13:17:59.729Z,129.37
2023-10-30T13:20:29.038Z,124.83
2023-10-30T13:22:58.935Z,110.73
2023-10-30T13:25:28.688Z,99.07
2023-10-30T13:27:57.197Z,93.07
2023-10-30T13:30:25.675Z,84.83
2023-10-30T13:32:57.302Z,76.93
2023-10-30T13:35:25.828Z,67.73
2023-10-30T13:37:54.201Z,66.10
2023-10-30T13:40:22.520Z,60.33
2023-10-30T13:42:52.416Z,56.20
2023-10-30T13:45:20.775Z,52.83
2023-10-30T13:47:49.144Z,52.87
2023-10-30T13:50:17.683Z,49.27
2023-10-30T13:52:46.052Z,42.73
2023-10-30T13:55:14.386Z,38.50
2023-10-30T13:57:42.969Z,33.43
2023-10-30T14:00:13.534Z,27.20
2023-10-30T14:02:43.011Z,16.17
2023-10-30T14:05:11.637Z,13.80
2023-10-30T14:07:40.044Z,13.33
2023-10-30T14:10:09.123Z,17.23
2023-10-30T14:12:37.557Z,23.73
2023-10-30T14:15:06.168Z,18.43
2023-10-30T14:17:36.241Z,20.60
2023-10-30T14:20:04.857Z,17.93
2023-10-30T14:22:33.933Z,20.20
2023-10-30T14:25:02.466Z,19.10
2023-10-30T14:27:31.186Z,19.33
2023-10-30T14:29:59.559Z,21.07
2023-10-30T14:32:27.930Z,19.50
2023-10-30T14:34:57.772Z,18.77
2023-10-30T14:37:26.103Z,18.67
2023-10-30T14:39:54.746Z,20.60
2023-10-30T14:42:23.144Z,18.67
2023-10-30T14:44:53.063Z,18.50
2023-10-30T14:47:21.568Z,19.57
2023-10-30T14:49:50.142Z,17.27
2023-10-30T14:52:20.021Z,16.70
2023-10-30T14:54:48.606Z,18.17
2023-10-30T14:57:19.200Z,16.80
2023-10-30T14:59:47.600Z,17.83
2023-10-30T15:02:16.068Z,15.50
2023-10-30T15:04:44.617Z,17.60
2023-10-30T15:07:12.986Z,17.03
2023-10-30T15:09:43.669Z,15.70
2023-10-30T15:12:12.104Z,16.47
2023-10-30T15:14:40.503Z,15.73
2023-10-30T15:17:08.866Z,15.63
2023-10-30T15:19:37.283Z,15.93
2023-10-30T15:22:06.120Z,15.80
2023-10-30T15:24:34.513Z,14.17
2023-10-30T15:27:04.683Z,15.00
2023-10-30T15:29:33.085Z,14.97
2023-10-30T15:32:01.439Z,14.23
2023-10-30T15:34:30.140Z,14.73
2023-10-30T15:36:58.624Z,13.40
2023-10-30T15:39:26.995Z,13.97
2023-10-30T15:41:55.395Z,14.30
2023-10-30T15:44:25.208Z,15.30
2023-10-30T15:47:00.468Z,12.83
2023-10-30T15:49:33.388Z,13.90
2023-10-30T15:59:38.087Z,12.80
2023-10-30T16:02:09.869Z,12.30
2023-10-30T16:07:11.563Z,12.87
2023-10-30T16:09:40.151Z,11.63
2023-10-30T16:14:41.929Z,12.40
2023-10-30T16:19:42.727Z,11.43
2023-10-30T16:22:11.335Z,11.53
2023-10-30T16:24:39.905Z,10.13
2023-10-30T16:27:08.281Z,11.67
2023-10-30T16:29:36.729Z,10.27
2023-10-30T16:32:06.698Z,9.90
2023-10-30T16:34:35.163Z,11.57
2023-10-30T16:37:04.552Z,10.80
2023-10-30T16:39:32.988Z,9.93
2023-10-30T16:42:01.378Z,12.17
2023-10-30T16:44:30.043Z,9.20
2023-10-30T16:46:58.409Z,10.67
2023-10-30T16:49:28.438Z,10.03
2023-10-30T16:51:56.796Z,9.90
2023-10-30T16:54:25.251Z,9.67
2023-10-30T16:56:53.885Z,11.30
2023-10-30T16:59:22.299Z,9.20
2023-10-30T17:01:51.804Z,9.80
2023-10-30T17:04:20.391Z,9.97
2023-10-30T17:06:50.230Z,8.90
2023-10-30T17:09:18.581Z,10.60
2023-10-30T17:11:46.996Z,8.73
2023-10-30T17:14:15.965Z,9.23
2023-10-30T17:16:45.951Z,9.33
2023-10-30T17:19:16.405Z,9.17
2023-10-30T17:21:45.186Z,9.80
2023-10-30T17:24:14.958Z,8.43
2023-10-30T17:26:43.348Z,9.77
2023-10-30T17:29:11.822Z,8.97
2023-10-30T17:31:40.286Z,9.50
2023-10-30T17:34:08.710Z,9.03
2023-10-30T17:36:37.201Z,9.43
2023-10-30T17:39:07.940Z,8.90
2023-10-30T17:41:37.752Z,9.77
2023-10-30T17:44:06.432Z,10.27
2023-10-30T17:46:34.833Z,24.77
2023-10-30T17:49:03.246Z,44.43
2023-10-30T17:51:31.594Z,34.93
2023-10-30T17:53:58.963Z,38.70
2023-10-30T17:56:31.536Z,37.10
2023-10-30T17:59:01.301Z,31.93
2023-10-30T18:01:30.041Z,38.30
2023-10-30T18:03:58.502Z,35.93
2023-10-30T18:06:26.878Z,32.30
2023-10-30T18:08:55.210Z,31.60
2023-10-30T18:11:24.145Z,35.97
2023-10-30T18:13:52.512Z,33.30
2023-10-30T18:16:22.344Z,32.10
2023-10-30T18:18:50.781Z,30.67
2023-10-30T18:21:19.159Z,26.97
2023-10-30T18:23:47.566Z,23.97
2023-10-30T18:26:21.276Z,22.67
2023-10-30T18:28:49.798Z,22.77
2023-10-30T18:31:18.230Z,24.03
2023-10-30T18:33:47.977Z,21.03
2023-10-30T18:36:16.663Z,21.27
2023-10-30T18:38:45.112Z,19.93
2023-10-30T18:41:13.468Z,21.00
2023-10-30T18:43:41.899Z,22.13
2023-10-30T18:46:10.659Z,21.93
2023-10-30T18:48:39.631Z,19.07
2023-10-30T18:51:09.427Z,18.47
2023-10-30T18:53:37.797Z,18.13
2023-10-30T18:56:07.749Z,18.03
2023-10-30T18:58:36.716Z,18.50
2023-10-30T19:01:05.536Z,16.30
2023-10-30T19:03:34.693Z,17.57
2023-10-30T19:06:03.778Z,17.07
2023-10-30T19:08:33.661Z,16.47
2023-10-30T19:11:02.178Z,17.23
2023-10-30T19:13:31.190Z,16.80
2023-10-30T19:16:00.261Z,15.37
2023-10-30T19:18:28.882Z,14.73
2023-10-30T19:20:58.545Z,13.60
2023-10-30T19:23:26.931Z,12.63
2023-10-30T19:25:56.703Z,13.87
2023-10-30T19:28:25.095Z,14.93
2023-10-30T19:30:53.501Z,13.60
2023-10-30T19:33:21.866Z,14.00
2023-10-30T19:35:50.208Z,14.20
2023-10-30T19:38:18.554Z,11.23
2023-10-30T19:40:46.942Z,12.07
2023-10-30T19:43:16.682Z,13.17
2023-10-30T19:45:45.097Z,11.80
2023-10-30T19:48:13.547Z,11.63
2023-10-30T19:50:42.020Z,10.60
2023-10-30T19:53:11.877Z,11.43
2023-10-30T19:55:40.230Z,10.17
2023-10-30T19:58:08.640Z,11.03
2023-10-30T20:00:38.386Z,10.87
2023-10-30T20:03:06.854Z,10.67
2023-10-30T20:05:35.651Z,9.27
2023-10-30T20:08:04.114Z,9.73
2023-10-30T20:10:37.648Z,10.10
2023-10-30T20:13:08.094Z,10.00
2023-10-30T20:15:38.002Z,8.97
2023-10-30T20:18:06.376Z,8.57
2023-10-30T20:20:34.714Z,8.63
2023-10-30T20:23:03.154Z,9.00
2023-10-30T20:25:33.239Z,7.87
2023-10-30T20:28:01.774Z,8.33
2023-10-30T20:30:30.336Z,9.40
2023-10-30T20:33:00.149Z,8.77
2023-10-30T20:35:28.656Z,8.13
2023-10-30T20:37:57.076Z,7.77
2023-10-30T20:40:25.569Z,7.87
2023-10-30T20:42:54.306Z,7.73
2023-10-30T20:45:22.737Z,6.50
2023-10-30T20:47:53.072Z,7.63
2023-10-30T20:50:24.739Z,7.83
2023-10-30T20:52:53.193Z,7.90
2023-10-30T20:55:21.745Z,6.03
2023-10-30T20:57:50.148Z,7.80
2023-10-30T21:00:19.159Z,6.90
2023-10-30T21:02:47.551Z,8.13
2023-10-30T21:05:17.284Z,6.63
2023-10-30T21:07:47.117Z,6.10
2023-10-30T21:10:15.515Z,6.43
2023-10-30T21:12:43.916Z,6.33
2023-10-30T21:15:12.467Z,6.77
2023-10-30T21:17:40.912Z,6.23
2023-10-30T21:20:09.636Z,7.37
2023-10-30T21:22:38.080Z,6.13
2023-10-30T21:25:08.455Z,5.77
2023-10-30T21:27:36.815Z,6.53
2023-10-30T21:30:05.672Z,5.97
2023-10-30T21:32:34.125Z,6.40
2023-10-30T21:35:02.639Z,6.65
2023-10-30T21:37:31.040Z,5.50
2023-10-30T21:40:01.721Z,5.53
2023-10-30T21:42:32.101Z,5.20
2023-10-30T21:45:00.529Z,4.27
2023-10-30T21:47:30.923Z,5.50
2023-10-30T21:50:00.928Z,5.70
2023-10-30T21:52:29.369Z,5.00
2023-10-30T21:54:57.965Z,5.63
2023-10-30T21:57:26.463Z,5.03
2023-10-30T21:59:56.329Z,4.80
2023-10-30T22:02:24.965Z,5.40
2023-10-30T22:04:53.640Z,6.10
2023-10-30T22:07:22.510Z,5.30
2023-10-30T22:09:50.910Z,5.63
2023-10-30T22:12:19.579Z,4.17
2023-10-30T22:14:47.991Z,4.87
2023-10-30T22:17:17.716Z,5.30
2023-10-30T22:19:46.417Z,4.27
2023-10-30T22:22:14.775Z,5.63
2023-10-30T22:24:43.121Z,4.47
2023-10-30T22:27:11.498Z,5.87
2023-10-30T22:29:39.909Z,4.47
2023-10-30T22:32:08.529Z,5.60
2023-10-30T22:34:38.306Z,3.97
2023-10-30T22:37:06.865Z,5.53
2023-10-30T22:39:35.248Z,5.90
2023-10-30T22:42:03.783Z,5.57
2023-10-30T22:44:32.141Z,5.37
2023-10-30T22:47:00.633Z,5.73
2023-10-30T22:49:29.087Z,5.97
2023-10-30T22:51:58.927Z,5.53
2023-10-30T22:54:27.261Z,5.37
2023-10-30T22:56:55.592Z,6.40
2023-10-30T22:59:24.416Z,5.50
2023-10-30T23:01:53.101Z,6.43
2023-10-30T23:04:21.567Z,6.00
2023-10-30T23:06:49.946Z,4.97
2023-10-30T23:09:19.685Z,6.17
2023-10-30T23:11:48.257Z,5.90
2023-10-30T23:14:16.696Z,6.27
2023-10-30T23:16:45.378Z,6.93
2023-10-30T23:19:13.757Z,6.17
2023-10-30T23:21:42.206Z,5.70
2023-10-30T23:24:10.751Z,6.83
2023-10-30T23:26:40.545Z,7.40
2023-10-30T23:29:08.925Z,5.93
2023-10-30T23:31:37.382Z,7.40
2023-10-30T23:34:05.771Z,5.73
2023-10-30T23:36:34.146Z,7.33
2023-10-30T23:39:02.457Z,6.37
2023-10-30T23:41:30.899Z,6.07
2023-10-30T23:44:00.577Z,5.40
2023-10-30T23:46:35.722Z,5.57
2023-10-30T23:49:09.526Z,5.90
2023-10-30T23:51:38.737Z,5.50
2023-10-30T23:54:07.210Z,5.80
2023-10-30T23:56:35.570Z,5.20
2023-10-30T23:59:05.785Z,5.47
